sensor_id;sensor_type;location;lat;lon;timestamp;P1;durP1;ratioP1;P2;durP2;ratioP2
5674;SDS011;2860;54.284;10.158;2023-06-22T00:00:56;4.30;;;4.20;;
5674;SDS011;2860;54.284;10.158;2023-06-22T00:03:22;4.03;;;3.92;;
5674;SDS011;2860;54.284;10.158;2023-06-22T00:05:51;4.13;;;4.03;;
5674;SDS011;2860;54.284;10.158;2023-06-22T00:08:17;5.18;;;4.85;;
5674;SDS011;2860;54.284;10.158;2023-06-22T00:10:44;5.00;;;4.60;;
5674;SDS011;2860;54.284;10.158;2023-06-22T00:13:10;4.45;;;4.28;;
5674;SDS011;2860;54.284;10.158;2023-06-22T00:15:37;4.13;;;3.97;;
5674;SDS011;2860;54.284;10.158;2023-06-22T00:18:07;4.28;;;4.07;;
5674;SDS011;2860;54.284;10.158;2023-06-22T00:20:33;5.03;;;4.72;;
5674;SDS011;2860;54.284;10.158;2023-06-22T00:23:02;5.57;;;5.20;;
5674;SDS011;2860;54.284;10.158;2023-06-22T00:25:36;4.78;;;4.63;;
5674;SDS011;2860;54.284;10.158;2023-06-22T00:28:04;5.47;;;5.18;;
5674;SDS011;2860;54.284;10.158;2023-06-22T00:30:31;4.78;;;4.63;;
5674;SDS011;2860;54.284;10.158;2023-06-22T00:32:57;4.82;;;4.57;;
5674;SDS011;2860;54.284;10.158;2023-06-22T00:35:23;5.32;;;4.95;;
5674;SDS011;2860;54.284;10.158;2023-06-22T00:37:53;5.05;;;4.75;;
5674;SDS011;2860;54.284;10.158;2023-06-22T00:40:25;7.10;;;5.28;;
5674;SDS011;2860;54.284;10.158;2023-06-22T00:42:52;5.65;;;5.30;;
5674;SDS011;2860;54.284;10.158;2023-06-22T00:45:17;5.10;;;4.70;;
5674;SDS011;2860;54.284;10.158;2023-06-22T00:47:43;5.65;;;5.15;;
5674;SDS011;2860;54.284;10.158;2023-06-22T00:50:09;5.18;;;4.97;;
5674;SDS011;2860;54.284;10.158;2023-06-22T00:52:43;5.43;;;5.00;;
5674;SDS011;2860;54.284;10.158;2023-06-22T00:55:09;6.32;;;5.85;;
5674;SDS011;2860;54.284;10.158;2023-06-22T00:57:35;4.75;;;4.45;;
5674;SDS011;2860;54.284;10.158;2023-06-22T01:00:02;5.40;;;5.18;;
5674;SDS011;2860;54.284;10.158;2023-06-22T01:02:31;4.53;;;4.35;;
5674;SDS011;2860;54.284;10.158;2023-06-22T01:04:57;5.05;;;4.75;;
5674;SDS011;2860;54.284;10.158;2023-06-22T01:07:34;5.90;;;5.45;;
5674;SDS011;2860;54.284;10.158;2023-06-22T01:12:58;5.68;;;5.45;;
5674;SDS011;2860;54.284;10.158;2023-06-22T01:15:37;5.85;;;5.38;;
5674;SDS011;2860;54.284;10.158;2023-06-22T01:18:18;6.07;;;5.68;;
5674;SDS011;2860;54.284;10.158;2023-06-22T01:20:50;5.53;;;5.13;;
5674;SDS011;2860;54.284;10.158;2023-06-22T01:29:22;5.20;;;5.00;;
5674;SDS011;2860;54.284;10.158;2023-06-22T01:31:49;4.85;;;4.55;;
5674;SDS011;2860;54.284;10.158;2023-06-22T01:34:17;5.07;;;4.80;;
5674;SDS011;2860;54.284;10.158;2023-06-22T01:36:43;5.10;;;4.88;;
5674;SDS011;2860;54.284;10.158;2023-06-22T01:39:10;5.55;;;5.20;;
5674;SDS011;2860;54.284;10.158;2023-06-22T01:41:37;5.82;;;5.53;;
5674;SDS011;2860;54.284;10.158;2023-06-22T01:44:05;6.10;;;5.80;;
5674;SDS011;2860;54.284;10.158;2023-06-22T01:46:32;6.38;;;5.75;;
5674;SDS011;2860;54.284;10.158;2023-06-22T01:48:59;6.45;;;6.07;;
5674;SDS011;2860;54.284;10.158;2023-06-22T01:51:26;7.55;;;6.95;;
5674;SDS011;2860;54.284;10.158;2023-06-22T01:53:51;5.97;;;5.72;;
5674;SDS011;2860;54.284;10.158;2023-06-22T01:56:17;6.22;;;5.95;;
5674;SDS011;2860;54.284;10.158;2023-06-22T01:58:47;5.85;;;5.38;;
5674;SDS011;2860;54.284;10.158;2023-06-22T02:01:24;5.72;;;5.43;;
5674;SDS011;2860;54.284;10.158;2023-06-22T02:04:00;6.72;;;5.80;;
5674;SDS011;2860;54.284;10.158;2023-06-22T02:06:31;5.93;;;5.40;;
5674;SDS011;2860;54.284;10.158;2023-06-22T02:09:02;5.60;;;5.20;;
5674;SDS011;2860;54.284;10.158;2023-06-22T02:11:33;4.88;;;4.57;;
5674;SDS011;2860;54.284;10.158;2023-06-22T02:14:01;4.80;;;4.47;;
5674;SDS011;2860;54.284;10.158;2023-06-22T02:16:27;6.25;;;5.53;;
5674;SDS011;2860;54.284;10.158;2023-06-22T02:18:55;5.75;;;5.35;;
5674;SDS011;2860;54.284;10.158;2023-06-22T02:21:27;5.72;;;5.53;;
5674;SDS011;2860;54.284;10.158;2023-06-22T02:23:53;6.75;;;6.13;;
5674;SDS011;2860;54.284;10.158;2023-06-22T02:26:19;5.85;;;5.63;;
5674;SDS011;2860;54.284;10.158;2023-06-22T02:28:44;6.45;;;6.15;;
5674;SDS011;2860;54.284;10.158;2023-06-22T02:31:10;5.63;;;5.28;;
5674;SDS011;2860;54.284;10.158;2023-06-22T02:33:36;7.63;;;7.05;;
5674;SDS011;2860;54.284;10.158;2023-06-22T02:36:02;7.68;;;7.07;;
5674;SDS011;2860;54.284;10.158;2023-06-22T02:38:34;6.55;;;6.03;;
5674;SDS011;2860;54.284;10.158;2023-06-22T02:41:01;7.68;;;6.97;;
5674;SDS011;2860;54.284;10.158;2023-06-22T02:43:27;6.68;;;6.13;;
5674;SDS011;2860;54.284;10.158;2023-06-22T02:45:52;6.50;;;5.97;;
5674;SDS011;2860;54.284;10.158;2023-06-22T02:48:18;7.05;;;6.32;;
5674;SDS011;2860;54.284;10.158;2023-06-22T02:50:44;6.18;;;5.88;;
5674;SDS011;2860;54.284;10.158;2023-06-22T02:53:09;6.50;;;6.07;;
5674;SDS011;2860;54.284;10.158;2023-06-22T02:55:35;6.80;;;6.30;;
5674;SDS011;2860;54.284;10.158;2023-06-22T02:58:00;6.57;;;6.05;;
5674;SDS011;2860;54.284;10.158;2023-06-22T03:00:29;7.50;;;6.80;;
5674;SDS011;2860;54.284;10.158;2023-06-22T03:02:56;7.55;;;6.82;;
5674;SDS011;2860;54.284;10.158;2023-06-22T03:05:22;8.43;;;7.72;;
5674;SDS011;2860;54.284;10.158;2023-06-22T03:07:48;7.53;;;6.82;;
5674;SDS011;2860;54.284;10.158;2023-06-22T03:10:14;6.88;;;6.38;;
5674;SDS011;2860;54.284;10.158;2023-06-22T03:12:40;6.88;;;6.32;;
5674;SDS011;2860;54.284;10.158;2023-06-22T03:15:08;6.60;;;6.20;;
5674;SDS011;2860;54.284;10.158;2023-06-22T03:17:35;7.00;;;6.25;;
5674;SDS011;2860;54.284;10.158;2023-06-22T03:20:01;6.10;;;5.50;;
5674;SDS011;2860;54.284;10.158;2023-06-22T03:22:34;7.38;;;6.00;;
5674;SDS011;2860;54.284;10.158;2023-06-22T03:25:00;5.93;;;5.63;;
5674;SDS011;2860;54.284;10.158;2023-06-22T03:27:26;5.47;;;5.28;;
5674;SDS011;2860;54.284;10.158;2023-06-22T03:29:51;6.32;;;5.88;;
5674;SDS011;2860;54.284;10.158;2023-06-22T03:32:17;6.20;;;5.85;;
5674;SDS011;2860;54.284;10.158;2023-06-22T03:34:42;6.10;;;5.70;;
5674;SDS011;2860;54.284;10.158;2023-06-22T03:37:12;6.00;;;5.50;;
5674;SDS011;2860;54.284;10.158;2023-06-22T03:39:39;5.35;;;5.15;;
5674;SDS011;2860;54.284;10.158;2023-06-22T03:42:05;6.35;;;5.95;;
5674;SDS011;2860;54.284;10.158;2023-06-22T03:44:31;5.70;;;5.50;;
5674;SDS011;2860;54.284;10.158;2023-06-22T03:46:56;5.53;;;5.20;;
5674;SDS011;2860;54.284;10.158;2023-06-22T03:49:22;7.57;;;5.63;;
5674;SDS011;2860;54.284;10.158;2023-06-22T03:51:47;6.78;;;6.30;;
5674;SDS011;2860;54.284;10.158;2023-06-22T03:54:13;5.40;;;5.05;;
5674;SDS011;2860;54.284;10.158;2023-06-22T03:56:38;5.95;;;5.65;;
5674;SDS011;2860;54.284;10.158;2023-06-22T03:59:04;6.68;;;6.18;;
5674;SDS011;2860;54.284;10.158;2023-06-22T04:01:29;5.65;;;5.35;;
5674;SDS011;2860;54.284;10.158;2023-06-22T04:03:55;6.40;;;5.95;;
5674;SDS011;2860;54.284;10.158;2023-06-22T04:06:20;6.97;;;6.43;;
5674;SDS011;2860;54.284;10.158;2023-06-22T04:08:47;8.65;;;8.05;;
5674;SDS011;2860;54.284;10.158;2023-06-22T04:11:15;6.00;;;5.70;;
5674;SDS011;2860;54.284;10.158;2023-06-22T04:13:42;6.13;;;5.72;;
5674;SDS011;2860;54.284;10.158;2023-06-22T04:16:08;7.03;;;6.60;;
5674;SDS011;2860;54.284;10.158;2023-06-22T04:18:33;7.20;;;6.43;;
5674;SDS011;2860;54.284;10.158;2023-06-22T04:20:59;8.25;;;7.43;;
5674;SDS011;2860;54.284;10.158;2023-06-22T04:23:24;6.95;;;6.30;;
5674;SDS011;2860;54.284;10.158;2023-06-22T04:25:50;6.68;;;6.30;;
5674;SDS011;2860;54.284;10.158;2023-06-22T04:28:16;7.03;;;6.47;;
5674;SDS011;2860;54.284;10.158;2023-06-22T04:30:42;8.48;;;7.72;;
5674;SDS011;2860;54.284;10.158;2023-06-22T04:33:11;11.80;;;10.52;;
5674;SDS011;2860;54.284;10.158;2023-06-22T04:35:39;8.35;;;7.60;;
5674;SDS011;2860;54.284;10.158;2023-06-22T04:38:06;12.88;;;11.05;;
5674;SDS011;2860;54.284;10.158;2023-06-22T04:40:32;7.32;;;6.88;;
5674;SDS011;2860;54.284;10.158;2023-06-22T04:42:58;7.28;;;6.75;;
5674;SDS011;2860;54.284;10.158;2023-06-22T04:45:27;8.27;;;7.68;;
5674;SDS011;2860;54.284;10.158;2023-06-22T04:47:53;9.48;;;8.38;;
5674;SDS011;2860;54.284;10.158;2023-06-22T04:50:18;18.52;;;8.68;;
5674;SDS011;2860;54.284;10.158;2023-06-22T04:52:46;8.73;;;8.13;;
5674;SDS011;2860;54.284;10.158;2023-06-22T04:55:12;12.23;;;9.45;;
5674;SDS011;2860;54.284;10.158;2023-06-22T04:57:43;9.55;;;8.93;;
5674;SDS011;2860;54.284;10.158;2023-06-22T05:00:14;15.93;;;14.27;;
5674;SDS011;2860;54.284;10.158;2023-06-22T05:02:42;8.73;;;7.82;;
5674;SDS011;2860;54.284;10.158;2023-06-22T05:05:08;24.45;;;21.13;;
5674;SDS011;2860;54.284;10.158;2023-06-22T05:07:38;8.15;;;7.43;;
5674;SDS011;2860;54.284;10.158;2023-06-22T05:10:07;11.63;;;9.77;;
5674;SDS011;2860;54.284;10.158;2023-06-22T05:12:34;9.52;;;8.80;;
5674;SDS011;2860;54.284;10.158;2023-06-22T05:15:00;9.88;;;9.05;;
5674;SDS011;2860;54.284;10.158;2023-06-22T05:17:26;8.23;;;7.57;;
5674;SDS011;2860;54.284;10.158;2023-06-22T05:19:52;10.25;;;9.45;;
5674;SDS011;2860;54.284;10.158;2023-06-22T05:22:18;11.13;;;10.27;;
5674;SDS011;2860;54.284;10.158;2023-06-22T05:24:44;10.27;;;9.32;;
5674;SDS011;2860;54.284;10.158;2023-06-22T05:27:09;10.80;;;9.80;;
5674;SDS011;2860;54.284;10.158;2023-06-22T05:29:38;10.60;;;9.52;;
5674;SDS011;2860;54.284;10.158;2023-06-22T05:32:04;9.73;;;8.88;;
5674;SDS011;2860;54.284;10.158;2023-06-22T05:34:30;12.80;;;9.00;;
5674;SDS011;2860;54.284;10.158;2023-06-22T05:36:56;8.07;;;7.28;;
5674;SDS011;2860;54.284;10.158;2023-06-22T05:39:23;8.90;;;7.72;;
5674;SDS011;2860;54.284;10.158;2023-06-22T05:41:49;8.82;;;8.13;;
5674;SDS011;2860;54.284;10.158;2023-06-22T05:44:14;7.32;;;6.72;;
5674;SDS011;2860;54.284;10.158;2023-06-22T05:46:40;6.95;;;5.68;;
5674;SDS011;2860;54.284;10.158;2023-06-22T05:49:11;4.88;;;4.68;;
5674;SDS011;2860;54.284;10.158;2023-06-22T05:51:37;5.57;;;5.00;;
5674;SDS011;2860;54.284;10.158;2023-06-22T05:54:03;6.82;;;4.35;;
5674;SDS011;2860;54.284;10.158;2023-06-22T05:56:29;4.38;;;3.97;;
5674;SDS011;2860;54.284;10.158;2023-06-22T05:58:54;3.60;;;3.33;;
5674;SDS011;2860;54.284;10.158;2023-06-22T06:01:20;4.47;;;4.10;;
5674;SDS011;2860;54.284;10.158;2023-06-22T06:03:46;4.45;;;4.25;;
5674;SDS011;2860;54.284;10.158;2023-06-22T06:06:11;3.60;;;3.50;;
5674;SDS011;2860;54.284;10.158;2023-06-22T06:08:38;5.00;;;4.18;;
5674;SDS011;2860;54.284;10.158;2023-06-22T06:11:03;3.30;;;3.10;;
5674;SDS011;2860;54.284;10.158;2023-06-22T06:13:29;5.47;;;3.05;;
5674;SDS011;2860;54.284;10.158;2023-06-22T06:15:55;2.72;;;2.63;;
5674;SDS011;2860;54.284;10.158;2023-06-22T06:18:21;2.63;;;2.55;;
5674;SDS011;2860;54.284;10.158;2023-06-22T06:20:46;2.75;;;2.65;;
5674;SDS011;2860;54.284;10.158;2023-06-22T06:23:12;2.50;;;2.33;;
5674;SDS011;2860;54.284;10.158;2023-06-22T06:25:37;3.20;;;2.63;;
5674;SDS011;2860;54.284;10.158;2023-06-22T06:28:03;3.47;;;2.47;;
5674;SDS011;2860;54.284;10.158;2023-06-22T06:30:29;4.63;;;3.47;;
5674;SDS011;2860;54.284;10.158;2023-06-22T06:32:55;3.42;;;3.33;;
5674;SDS011;2860;54.284;10.158;2023-06-22T06:35:20;3.30;;;2.55;;
5674;SDS011;2860;54.284;10.158;2023-06-22T06:37:48;3.38;;;2.28;;
5674;SDS011;2860;54.284;10.158;2023-06-22T06:40:15;2.22;;;2.10;;
5674;SDS011;2860;54.284;10.158;2023-06-22T06:42:45;2.10;;;1.95;;
5674;SDS011;2860;54.284;10.158;2023-06-22T06:45:12;1.95;;;1.95;;
5674;SDS011;2860;54.284;10.158;2023-06-22T06:47:47;3.15;;;3.05;;
5674;SDS011;2860;54.284;10.158;2023-06-22T06:50:13;2.70;;;2.60;;
5674;SDS011;2860;54.284;10.158;2023-06-22T06:52:38;2.17;;;2.08;;
5674;SDS011;2860;54.284;10.158;2023-06-22T06:55:04;2.70;;;2.50;;
5674;SDS011;2860;54.284;10.158;2023-06-22T06:57:34;2.33;;;2.13;;
5674;SDS011;2860;54.284;10.158;2023-06-22T07:00:00;2.72;;;2.58;;
5674;SDS011;2860;54.284;10.158;2023-06-22T07:02:25;2.15;;;2.03;;
5674;SDS011;2860;54.284;10.158;2023-06-22T07:04:52;2.00;;;2.00;;
5674;SDS011;2860;54.284;10.158;2023-06-22T07:07:20;2.28;;;2.17;;
5674;SDS011;2860;54.284;10.158;2023-06-22T07:09:45;2.10;;;2.00;;
5674;SDS011;2860;54.284;10.158;2023-06-22T07:12:11;2.60;;;1.98;;
5674;SDS011;2860;54.284;10.158;2023-06-22T07:14:36;2.58;;;2.10;;
5674;SDS011;2860;54.284;10.158;2023-06-22T07:17:02;2.30;;;1.98;;
5674;SDS011;2860;54.284;10.158;2023-06-22T07:19:28;2.53;;;2.42;;
5674;SDS011;2860;54.284;10.158;2023-06-22T07:21:54;2.03;;;1.95;;
5674;SDS011;2860;54.284;10.158;2023-06-22T07:24:20;3.63;;;2.60;;
5674;SDS011;2860;54.284;10.158;2023-06-22T07:26:49;5.05;;;2.75;;
5674;SDS011;2860;54.284;10.158;2023-06-22T07:29:18;2.75;;;2.65;;
5674;SDS011;2860;54.284;10.158;2023-06-22T07:31:46;3.22;;;2.60;;
5674;SDS011;2860;54.284;10.158;2023-06-22T07:34:12;2.20;;;2.10;;
5674;SDS011;2860;54.284;10.158;2023-06-22T07:36:38;3.10;;;2.67;;
5674;SDS011;2860;54.284;10.158;2023-06-22T07:39:04;2.67;;;2.55;;
5674;SDS011;2860;54.284;10.158;2023-06-22T07:41:30;2.30;;;2.28;;
5674;SDS011;2860;54.284;10.158;2023-06-22T07:43:56;2.25;;;2.17;;
5674;SDS011;2860;54.284;10.158;2023-06-22T07:46:21;2.10;;;2.00;;
5674;SDS011;2860;54.284;10.158;2023-06-22T07:48:47;2.42;;;2.28;;
5674;SDS011;2860;54.284;10.158;2023-06-22T07:51:13;1.92;;;1.92;;
5674;SDS011;2860;54.284;10.158;2023-06-22T07:53:39;1.85;;;1.85;;
5674;SDS011;2860;54.284;10.158;2023-06-22T07:56:12;2.00;;;1.90;;
5674;SDS011;2860;54.284;10.158;2023-06-22T07:58:38;1.80;;;1.70;;
5674;SDS011;2860;54.284;10.158;2023-06-22T08:01:03;2.50;;;1.95;;
5674;SDS011;2860;54.284;10.158;2023-06-22T08:03:29;3.63;;;2.08;;
5674;SDS011;2860;54.284;10.158;2023-06-22T08:05:55;4.45;;;1.90;;
5674;SDS011;2860;54.284;10.158;2023-06-22T08:08:20;1.85;;;1.75;;
5674;SDS011;2860;54.284;10.158;2023-06-22T08:10:46;2.35;;;2.25;;
5674;SDS011;2860;54.284;10.158;2023-06-22T08:13:11;2.55;;;2.45;;
5674;SDS011;2860;54.284;10.158;2023-06-22T08:15:37;2.65;;;2.40;;
5674;SDS011;2860;54.284;10.158;2023-06-22T08:18:03;6.82;;;2.53;;
5674;SDS011;2860;54.284;10.158;2023-06-22T08:20:28;1.60;;;1.60;;
5674;SDS011;2860;54.284;10.158;2023-06-22T08:22:55;2.38;;;2.17;;
5674;SDS011;2860;54.284;10.158;2023-06-22T08:25:22;2.47;;;2.38;;
5674;SDS011;2860;54.284;10.158;2023-06-22T08:27:47;1.98;;;1.98;;
5674;SDS011;2860;54.284;10.158;2023-06-22T08:30:13;2.45;;;2.15;;
5674;SDS011;2860;54.284;10.158;2023-06-22T08:32:39;3.13;;;2.33;;
5674;SDS011;2860;54.284;10.158;2023-06-22T08:35:05;1.88;;;1.88;;
5674;SDS011;2860;54.284;10.158;2023-06-22T08:37:34;1.95;;;1.95;;
5674;SDS011;2860;54.284;10.158;2023-06-22T08:40:01;3.05;;;1.98;;
5674;SDS011;2860;54.284;10.158;2023-06-22T08:42:32;1.80;;;1.70;;
5674;SDS011;2860;54.284;10.158;2023-06-22T08:44:58;2.33;;;2.22;;
5674;SDS011;2860;54.284;10.158;2023-06-22T08:47:23;2.97;;;2.28;;
5674;SDS011;2860;54.284;10.158;2023-06-22T08:49:49;2.10;;;2.00;;
5674;SDS011;2860;54.284;10.158;2023-06-22T08:52:15;1.30;;;1.30;;
5674;SDS011;2860;54.284;10.158;2023-06-22T08:54:40;1.40;;;1.40;;
5674;SDS011;2860;54.284;10.158;2023-06-22T08:57:06;1.52;;;1.38;;
5674;SDS011;2860;54.284;10.158;2023-06-22T08:59:31;1.80;;;1.80;;
5674;SDS011;2860;54.284;10.158;2023-06-22T09:01:57;1.35;;;1.25;;
5674;SDS011;2860;54.284;10.158;2023-06-22T09:04:23;1.80;;;1.70;;
5674;SDS011;2860;54.284;10.158;2023-06-22T09:06:48;1.50;;;1.48;;
5674;SDS011;2860;54.284;10.158;2023-06-22T09:09:15;1.70;;;1.70;;
5674;SDS011;2860;54.284;10.158;2023-06-22T09:11:41;1.05;;;1.02;;
5674;SDS011;2860;54.284;10.158;2023-06-22T09:14:07;3.90;;;1.52;;
5674;SDS011;2860;54.284;10.158;2023-06-22T09:16:33;2.70;;;1.42;;
5674;SDS011;2860;54.284;10.158;2023-06-22T09:18:59;1.67;;;1.60;;
5674;SDS011;2860;54.284;10.158;2023-06-22T09:21:25;2.80;;;1.40;;
5674;SDS011;2860;54.284;10.158;2023-06-22T09:23:50;1.33;;;1.33;;
5674;SDS011;2860;54.284;10.158;2023-06-22T09:26:19;1.50;;;1.40;;
5674;SDS011;2860;54.284;10.158;2023-06-22T09:28:46;1.60;;;1.50;;
5674;SDS011;2860;54.284;10.158;2023-06-22T09:31:12;1.70;;;1.60;;
5674;SDS011;2860;54.284;10.158;2023-06-22T09:33:37;1.20;;;1.20;;
5674;SDS011;2860;54.284;10.158;2023-06-22T09:36:05;1.40;;;1.40;;
5674;SDS011;2860;54.284;10.158;2023-06-22T09:38:37;3.25;;;1.80;;
5674;SDS011;2860;54.284;10.158;2023-06-22T09:41:02;1.25;;;1.25;;
5674;SDS011;2860;54.284;10.158;2023-06-22T09:43:29;1.50;;;1.50;;
5674;SDS011;2860;54.284;10.158;2023-06-22T09:45:56;1.35;;;1.35;;
5674;SDS011;2860;54.284;10.158;2023-06-22T09:48:22;1.17;;;1.17;;
5674;SDS011;2860;54.284;10.158;2023-06-22T09:50:47;1.63;;;1.52;;
5674;SDS011;2860;54.284;10.158;2023-06-22T09:53:13;1.65;;;1.23;;
5674;SDS011;2860;54.284;10.158;2023-06-22T09:55:38;1.30;;;1.20;;
5674;SDS011;2860;54.284;10.158;2023-06-22T09:58:04;2.13;;;1.30;;
5674;SDS011;2860;54.284;10.158;2023-06-22T10:00:30;1.50;;;1.45;;
5674;SDS011;2860;54.284;10.158;2023-06-22T10:02:55;1.05;;;1.05;;
5674;SDS011;2860;54.284;10.158;2023-06-22T10:05:21;4.22;;;2.42;;
5674;SDS011;2860;54.284;10.158;2023-06-22T10:07:47;1.30;;;1.30;;
5674;SDS011;2860;54.284;10.158;2023-06-22T10:10:13;2.00;;;1.90;;
5674;SDS011;2860;54.284;10.158;2023-06-22T10:12:44;1.70;;;1.60;;
5674;SDS011;2860;54.284;10.158;2023-06-22T10:15:13;1.40;;;1.30;;
5674;SDS011;2860;54.284;10.158;2023-06-22T10:17:45;1.08;;;1.08;;
5674;SDS011;2860;54.284;10.158;2023-06-22T10:20:11;1.55;;;1.50;;
5674;SDS011;2860;54.284;10.158;2023-06-22T10:22:40;2.45;;;1.17;;
5674;SDS011;2860;54.284;10.158;2023-06-22T10:25:07;1.52;;;1.42;;
5674;SDS011;2860;54.284;10.158;2023-06-22T10:27:33;1.40;;;1.40;;
5674;SDS011;2860;54.284;10.158;2023-06-22T10:29:59;1.13;;;1.13;;
5674;SDS011;2860;54.284;10.158;2023-06-22T10:32:24;1.58;;;1.58;;
5674;SDS011;2860;54.284;10.158;2023-06-22T10:34:50;3.10;;;1.33;;
5674;SDS011;2860;54.284;10.158;2023-06-22T10:37:15;1.45;;;1.45;;
5674;SDS011;2860;54.284;10.158;2023-06-22T10:39:41;1.55;;;1.40;;
5674;SDS011;2860;54.284;10.158;2023-06-22T10:42:06;1.35;;;1.35;;
5674;SDS011;2860;54.284;10.158;2023-06-22T10:44:32;2.35;;;1.75;;
5674;SDS011;2860;54.284;10.158;2023-06-22T10:46:57;2.72;;;1.65;;
5674;SDS011;2860;54.284;10.158;2023-06-22T10:49:23;1.77;;;1.67;;
5674;SDS011;2860;54.284;10.158;2023-06-22T10:51:48;2.55;;;1.48;;
5674;SDS011;2860;54.284;10.158;2023-06-22T10:54:14;1.55;;;1.45;;
5674;SDS011;2860;54.284;10.158;2023-06-22T10:56:42;2.05;;;1.55;;
5674;SDS011;2860;54.284;10.158;2023-06-22T10:59:07;1.83;;;1.73;;
5674;SDS011;2860;54.284;10.158;2023-06-22T11:01:33;1.58;;;1.58;;
5674;SDS011;2860;54.284;10.158;2023-06-22T11:03:58;2.25;;;2.15;;
5674;SDS011;2860;54.284;10.158;2023-06-22T11:06:24;2.08;;;1.98;;
5674;SDS011;2860;54.284;10.158;2023-06-22T11:08:49;1.67;;;1.67;;
5674;SDS011;2860;54.284;10.158;2023-06-22T11:11:15;1.42;;;1.42;;
5674;SDS011;2860;54.284;10.158;2023-06-22T11:13:42;2.25;;;2.15;;
5674;SDS011;2860;54.284;10.158;2023-06-22T11:16:08;1.88;;;1.80;;
5674;SDS011;2860;54.284;10.158;2023-06-22T11:18:35;2.13;;;2.03;;
5674;SDS011;2860;54.284;10.158;2023-06-22T11:21:00;2.15;;;1.77;;
5674;SDS011;2860;54.284;10.158;2023-06-22T11:23:26;1.38;;;1.35;;
5674;SDS011;2860;54.284;10.158;2023-06-22T11:25:52;1.95;;;1.95;;
5674;SDS011;2860;54.284;10.158;2023-06-22T11:28:19;2.58;;;2.47;;
5674;SDS011;2860;54.284;10.158;2023-06-22T11:30:44;4.78;;;2.17;;
5674;SDS011;2860;54.284;10.158;2023-06-22T11:33:10;1.60;;;1.52;;
5674;SDS011;2860;54.284;10.158;2023-06-22T11:35:35;2.63;;;1.65;;
5674;SDS011;2860;54.284;10.158;2023-06-22T11:38:01;3.38;;;1.48;;
5674;SDS011;2860;54.284;10.158;2023-06-22T11:40:28;1.42;;;1.42;;
5674;SDS011;2860;54.284;10.158;2023-06-22T11:42:53;7.38;;;3.08;;
5674;SDS011;2860;54.284;10.158;2023-06-22T11:45:19;1.73;;;1.73;;
5674;SDS011;2860;54.284;10.158;2023-06-22T11:47:45;1.38;;;1.27;;
5674;SDS011;2860;54.284;10.158;2023-06-22T11:50:10;1.33;;;1.25;;
5674;SDS011;2860;54.284;10.158;2023-06-22T11:52:36;2.80;;;1.52;;
5674;SDS011;2860;54.284;10.158;2023-06-22T11:55:02;4.70;;;1.45;;
5674;SDS011;2860;54.284;10.158;2023-06-22T11:57:30;1.23;;;1.23;;
5674;SDS011;2860;54.284;10.158;2023-06-22T11:59:57;1.55;;;1.55;;
5674;SDS011;2860;54.284;10.158;2023-06-22T12:02:23;1.60;;;1.55;;
5674;SDS011;2860;54.284;10.158;2023-06-22T12:04:48;2.53;;;1.20;;
5674;SDS011;2860;54.284;10.158;2023-06-22T12:07:17;1.00;;;1.00;;
5674;SDS011;2860;54.284;10.158;2023-06-22T12:09:43;1.35;;;1.35;;
5674;SDS011;2860;54.284;10.158;2023-06-22T12:12:09;3.83;;;1.35;;
5674;SDS011;2860;54.284;10.158;2023-06-22T12:14:34;1.95;;;1.40;;
5674;SDS011;2860;54.284;10.158;2023-06-22T12:17:00;1.45;;;1.30;;
5674;SDS011;2860;54.284;10.158;2023-06-22T12:19:25;2.85;;;1.55;;
5674;SDS011;2860;54.284;10.158;2023-06-22T12:21:51;2.15;;;1.13;;
5674;SDS011;2860;54.284;10.158;2023-06-22T12:24:16;3.40;;;1.20;;
5674;SDS011;2860;54.284;10.158;2023-06-22T12:26:42;1.85;;;1.75;;
5674;SDS011;2860;54.284;10.158;2023-06-22T12:29:08;1.50;;;1.50;;
5674;SDS011;2860;54.284;10.158;2023-06-22T12:31:34;1.60;;;1.50;;
5674;SDS011;2860;54.284;10.158;2023-06-22T12:34:00;1.45;;;1.08;;
5674;SDS011;2860;54.284;10.158;2023-06-22T12:36:26;1.88;;;1.27;;
5674;SDS011;2860;54.284;10.158;2023-06-22T12:38:51;1.48;;;1.38;;
5674;SDS011;2860;54.284;10.158;2023-06-22T12:41:17;2.50;;;1.23;;
5674;SDS011;2860;54.284;10.158;2023-06-22T12:43:42;2.67;;;0.95;;
5674;SDS011;2860;54.284;10.158;2023-06-22T12:46:08;1.40;;;1.08;;
5674;SDS011;2860;54.284;10.158;2023-06-22T12:48:33;1.30;;;1.20;;
5674;SDS011;2860;54.284;10.158;2023-06-22T12:50:59;1.25;;;1.23;;
5674;SDS011;2860;54.284;10.158;2023-06-22T12:53:24;1.10;;;1.10;;
5674;SDS011;2860;54.284;10.158;2023-06-22T12:55:52;1.27;;;1.20;;
5674;SDS011;2860;54.284;10.158;2023-06-22T12:58:17;1.45;;;1.40;;
5674;SDS011;2860;54.284;10.158;2023-06-22T13:00:43;1.15;;;1.15;;
5674;SDS011;2860;54.284;10.158;2023-06-22T13:03:08;1.35;;;1.35;;
5674;SDS011;2860;54.284;10.158;2023-06-22T13:05:34;1.20;;;1.20;;
5674;SDS011;2860;54.284;10.158;2023-06-22T13:08:01;1.33;;;1.23;;
5674;SDS011;2860;54.284;10.158;2023-06-22T13:10:26;1.20;;;1.20;;
5674;SDS011;2860;54.284;10.158;2023-06-22T13:12:52;0.90;;;0.90;;
5674;SDS011;2860;54.284;10.158;2023-06-22T13:15:25;1.50;;;1.10;;
5674;SDS011;2860;54.284;10.158;2023-06-22T13:17:51;4.03;;;1.42;;
5674;SDS011;2860;54.284;10.158;2023-06-22T13:20:17;1.10;;;1.10;;
5674;SDS011;2860;54.284;10.158;2023-06-22T13:22:42;1.20;;;1.20;;
5674;SDS011;2860;54.284;10.158;2023-06-22T13:25:09;1.85;;;1.08;;
5674;SDS011;2860;54.284;10.158;2023-06-22T13:27:40;1.50;;;1.40;;
5674;SDS011;2860;54.284;10.158;2023-06-22T13:30:07;1.25;;;1.10;;
5674;SDS011;2860;54.284;10.158;2023-06-22T13:32:33;1.60;;;1.60;;
5674;SDS011;2860;54.284;10.158;2023-06-22T13:34:59;2.13;;;1.15;;
5674;SDS011;2860;54.284;10.158;2023-06-22T13:37:25;1.50;;;1.50;;
5674;SDS011;2860;54.284;10.158;2023-06-22T13:39:51;3.13;;;1.02;;
5674;SDS011;2860;54.284;10.158;2023-06-22T13:42:16;1.35;;;1.25;;
5674;SDS011;2860;54.284;10.158;2023-06-22T13:44:42;1.45;;;1.45;;
5674;SDS011;2860;54.284;10.158;2023-06-22T13:47:08;1.00;;;1.00;;
5674;SDS011;2860;54.284;10.158;2023-06-22T13:49:33;0.93;;;0.93;;
5674;SDS011;2860;54.284;10.158;2023-06-22T13:51:59;1.40;;;1.30;;
5674;SDS011;2860;54.284;10.158;2023-06-22T13:54:25;1.48;;;1.27;;
5674;SDS011;2860;54.284;10.158;2023-06-22T13:56:50;1.25;;;0.98;;
5674;SDS011;2860;54.284;10.158;2023-06-22T13:59:16;1.20;;;1.17;;
5674;SDS011;2860;54.284;10.158;2023-06-22T14:01:41;1.23;;;1.23;;
5674;SDS011;2860;54.284;10.158;2023-06-22T14:04:08;3.00;;;1.33;;
5674;SDS011;2860;54.284;10.158;2023-06-22T14:06:33;1.10;;;1.10;;
5674;SDS011;2860;54.284;10.158;2023-06-22T14:08:59;0.98;;;0.98;;
5674;SDS011;2860;54.284;10.158;2023-06-22T14:11:25;1.10;;;1.10;;
5674;SDS011;2860;54.284;10.158;2023-06-22T14:13:50;1.30;;;1.30;;
5674;SDS011;2860;54.284;10.158;2023-06-22T14:16:16;1.35;;;1.25;;
5674;SDS011;2860;54.284;10.158;2023-06-22T14:18:42;1.27;;;1.27;;
5674;SDS011;2860;54.284;10.158;2023-06-22T14:21:07;1.02;;;1.02;;
5674;SDS011;2860;54.284;10.158;2023-06-22T14:23:33;2.78;;;1.20;;
5674;SDS011;2860;54.284;10.158;2023-06-22T14:25:59;1.60;;;1.23;;
5674;SDS011;2860;54.284;10.158;2023-06-22T14:28:24;1.25;;;1.20;;
5674;SDS011;2860;54.284;10.158;2023-06-22T14:30:50;1.23;;;1.13;;
5674;SDS011;2860;54.284;10.158;2023-06-22T14:33:15;1.30;;;1.30;;
5674;SDS011;2860;54.284;10.158;2023-06-22T14:35:41;1.35;;;1.15;;
5674;SDS011;2860;54.284;10.158;2023-06-22T14:38:06;0.90;;;0.90;;
5674;SDS011;2860;54.284;10.158;2023-06-22T14:40:32;1.75;;;1.27;;
5674;SDS011;2860;54.284;10.158;2023-06-22T14:42:57;0.95;;;0.95;;
5674;SDS011;2860;54.284;10.158;2023-06-22T14:45:23;2.58;;;1.10;;
5674;SDS011;2860;54.284;10.158;2023-06-22T14:47:49;1.35;;;1.25;;
5674;SDS011;2860;54.284;10.158;2023-06-22T14:50:15;0.90;;;0.90;;
5674;SDS011;2860;54.284;10.158;2023-06-22T14:52:40;1.20;;;1.20;;
5674;SDS011;2860;54.284;10.158;2023-06-22T14:55:06;1.10;;;1.10;;
5674;SDS011;2860;54.284;10.158;2023-06-22T14:57:32;1.30;;;1.10;;
5674;SDS011;2860;54.284;10.158;2023-06-22T14:59:57;1.55;;;1.17;;
5674;SDS011;2860;54.284;10.158;2023-06-22T15:02:23;1.33;;;1.33;;
5674;SDS011;2860;54.284;10.158;2023-06-22T15:04:48;1.20;;;1.20;;